sensor_id;sensor_type;location;lat;lon;timestamp;pressure;altitude;pressure_sealevel;temperature
68027;BMP180;54819;48.030;14.710;2023-04-06T00:00:51;97876.80;;;1.78
68027;BMP180;54819;48.030;14.710;2023-04-06T00:03:18;97880.40;;;1.74
68027;BMP180;54819;48.030;14.710;2023-04-06T00:05:47;97876.40;;;1.74
68027;BMP180;54819;48.030;14.710;2023-04-06T00:08:14;97872.60;;;1.80
68027;BMP180;54819;48.030;14.710;2023-04-06T00:10:40;97870.40;;;1.80
68027;BMP180;54819;48.030;14.710;2023-04-06T00:13:07;97868.00;;;1.80
68027;BMP180;54819;48.030;14.710;2023-04-06T00:15:34;97869.00;;;1.80
68027;BMP180;54819;48.030;14.710;2023-04-06T00:18:02;97867.80;;;1.80
68027;BMP180;54819;48.030;14.710;2023-04-06T00:20:29;97867.20;;;1.80
68027;BMP180;54819;48.030;14.710;2023-04-06T00:22:55;97868.80;;;1.80
68027;BMP180;54819;48.030;14.710;2023-04-06T00:25:22;97866.40;;;1.76
68027;BMP180;54819;48.030;14.710;2023-04-06T00:27:49;97863.40;;;1.70
68027;BMP180;54819;48.030;14.710;2023-04-06T00:30:16;97862.00;;;1.60
68027;BMP180;54819;48.030;14.710;2023-04-06T00:32:43;97861.40;;;1.60
68027;BMP180;54819;48.030;14.710;2023-04-06T00:35:09;97862.60;;;1.50
68027;BMP180;54819;48.030;14.710;2023-04-06T00:37:37;97858.80;;;1.50
68027;BMP180;54819;48.030;14.710;2023-04-06T00:40:04;97856.00;;;1.40
68027;BMP180;54819;48.030;14.710;2023-04-06T00:42:31;97859.80;;;1.40
68027;BMP180;54819;48.030;14.710;2023-04-06T00:45:00;97860.00;;;1.32
68027;BMP180;54819;48.030;14.710;2023-04-06T00:47:28;97862.00;;;1.30
68027;BMP180;54819;48.030;14.710;2023-04-06T00:49:56;97860.20;;;1.20
68027;BMP180;54819;48.030;14.710;2023-04-06T00:52:23;97860.00;;;1.20
68027;BMP180;54819;48.030;14.710;2023-04-06T00:54:51;97864.00;;;1.16
68027;BMP180;54819;48.030;14.710;2023-04-06T00:57:19;97858.20;;;1.10
68027;BMP180;54819;48.030;14.710;2023-04-06T00:59:51;97858.40;;;1.10
68027;BMP180;54819;48.030;14.710;2023-04-06T01:02:18;97858.00;;;1.10
68027;BMP180;54819;48.030;14.710;2023-04-06T01:04:47;97856.00;;;1.10
68027;BMP180;54819;48.030;14.710;2023-04-06T01:07:22;97852.00;;;1.08
68027;BMP180;54819;48.030;14.710;2023-04-06T01:10:00;97852.40;;;1.10
68027;BMP180;54819;48.030;14.710;2023-04-06T01:12:30;97854.00;;;1.10
68027;BMP180;54819;48.030;14.710;2023-04-06T01:14:59;97848.40;;;1.10
68027;BMP180;54819;48.030;14.710;2023-04-06T01:17:26;97850.40;;;1.14
68027;BMP180;54819;48.030;14.710;2023-04-06T01:19:56;97852.00;;;1.00
68027;BMP180;54819;48.030;14.710;2023-04-06T01:22:26;97847.00;;;1.08
68027;BMP180;54819;48.030;14.710;2023-04-06T01:24:59;97846.20;;;1.10
68027;BMP180;54819;48.030;14.710;2023-04-06T01:27:52;97843.60;;;1.08
68027;BMP180;54819;48.030;14.710;2023-04-06T01:30:23;97844.00;;;1.10
68027;BMP180;54819;48.030;14.710;2023-04-06T01:32:52;97843.20;;;1.10
68027;BMP180;54819;48.030;14.710;2023-04-06T01:35:30;97842.60;;;1.10
68027;BMP180;54819;48.030;14.710;2023-04-06T01:38:11;97841.60;;;1.10
68027;BMP180;54819;48.030;14.710;2023-04-06T01:40:38;97841.00;;;1.10
68027;BMP180;54819;48.030;14.710;2023-04-06T01:43:05;97838.40;;;1.10
68027;BMP180;54819;48.030;14.710;2023-04-06T01:45:36;97833.80;;;1.08
68027;BMP180;54819;48.030;14.710;2023-04-06T01:48:12;97836.40;;;1.04
68027;BMP180;54819;48.030;14.710;2023-04-06T01:50:38;97835.20;;;1.04
68027;BMP180;54819;48.030;14.710;2023-04-06T01:53:06;97836.60;;;1.02
68027;BMP180;54819;48.030;14.710;2023-04-06T01:55:33;97831.80;;;1.00
68027;BMP180;54819;48.030;14.710;2023-04-06T01:58:20;97833.40;;;0.98
68027;BMP180;54819;48.030;14.710;2023-04-06T02:00:47;97829.80;;;1.00
68027;BMP180;54819;48.030;14.710;2023-04-06T02:03:14;97833.80;;;1.00
68027;BMP180;54819;48.030;14.710;2023-04-06T02:05:41;97831.60;;;1.00
68027;BMP180;54819;48.030;14.710;2023-04-06T02:08:17;97840.60;;;0.96
68027;BMP180;54819;48.030;14.710;2023-04-06T02:10:45;97838.40;;;0.92
68027;BMP180;54819;48.030;14.710;2023-04-06T02:13:19;97837.20;;;0.90
68027;BMP180;54819;48.030;14.710;2023-04-06T02:15:48;97839.20;;;0.90
68027;BMP180;54819;48.030;14.710;2023-04-06T02:18:15;97842.60;;;0.86
68027;BMP180;54819;48.030;14.710;2023-04-06T02:20:44;97841.20;;;0.80
68027;BMP180;54819;48.030;14.710;2023-04-06T02:23:12;97839.00;;;0.80
68027;BMP180;54819;48.030;14.710;2023-04-06T02:25:39;97843.20;;;0.80
68027;BMP180;54819;48.030;14.710;2023-04-06T02:28:06;97842.20;;;0.86
68027;BMP180;54819;48.030;14.710;2023-04-06T02:30:34;97843.00;;;0.84
68027;BMP180;54819;48.030;14.710;2023-04-06T02:33:01;97845.40;;;0.88
68027;BMP180;54819;48.030;14.710;2023-04-06T02:35:33;97847.80;;;0.86
68027;BMP180;54819;48.030;14.710;2023-04-06T02:37:59;97854.20;;;0.88
68027;BMP180;54819;48.030;14.710;2023-04-06T02:40:26;97849.00;;;0.80
68027;BMP180;54819;48.030;14.710;2023-04-06T02:42:55;97846.80;;;0.76
68027;BMP180;54819;48.030;14.710;2023-04-06T02:45:26;97847.80;;;0.70
68027;BMP180;54819;48.030;14.710;2023-04-06T02:47:53;97852.20;;;0.70
68027;BMP180;54819;48.030;14.710;2023-04-06T02:50:21;97848.60;;;0.70
68027;BMP180;54819;48.030;14.710;2023-04-06T02:52:54;97849.40;;;0.62
68027;BMP180;54819;48.030;14.710;2023-04-06T02:55:21;97851.00;;;0.60
68027;BMP180;54819;48.030;14.710;2023-04-06T02:57:48;97846.40;;;0.60
68027;BMP180;54819;48.030;14.710;2023-04-06T03:00:17;97847.40;;;0.60
68027;BMP180;54819;48.030;14.710;2023-04-06T03:02:43;97851.40;;;0.60
68027;BMP180;54819;48.030;14.710;2023-04-06T03:05:14;97848.80;;;0.60
68027;BMP180;54819;48.030;14.710;2023-04-06T03:07:42;97845.40;;;0.60
68027;BMP180;54819;48.030;14.710;2023-04-06T03:10:13;97847.60;;;0.50
68027;BMP180;54819;48.030;14.710;2023-04-06T03:12:40;97848.80;;;0.50
68027;BMP180;54819;48.030;14.710;2023-04-06T03:15:16;97844.00;;;0.50
68027;BMP180;54819;48.030;14.710;2023-04-06T03:17:47;97843.60;;;0.50
68027;BMP180;54819;48.030;14.710;2023-04-06T03:20:29;97846.80;;;0.50
68027;BMP180;54819;48.030;14.710;2023-04-06T03:22:56;97849.80;;;0.46
68027;BMP180;54819;48.030;14.710;2023-04-06T03:25:25;97846.80;;;0.40
68027;BMP180;54819;48.030;14.710;2023-04-06T03:27:52;97849.60;;;0.40
68027;BMP180;54819;48.030;14.710;2023-04-06T03:30:20;97850.20;;;0.30
68027;BMP180;54819;48.030;14.710;2023-04-06T03:32:47;97848.00;;;0.30
68027;BMP180;54819;48.030;14.710;2023-04-06T03:35:14;97852.20;;;0.30
68027;BMP180;54819;48.030;14.710;2023-04-06T03:37:41;97850.40;;;0.30
68027;BMP180;54819;48.030;14.710;2023-04-06T03:40:09;97851.00;;;0.30
68027;BMP180;54819;48.030;14.710;2023-04-06T03:42:36;97849.40;;;0.30
68027;BMP180;54819;48.030;14.710;2023-04-06T03:45:08;97848.20;;;0.30
68027;BMP180;54819;48.030;14.710;2023-04-06T03:47:37;97850.00;;;0.40
68027;BMP180;54819;48.030;14.710;2023-04-06T03:50:05;97854.00;;;0.40
68027;BMP180;54819;48.030;14.710;2023-04-06T03:52:34;97853.80;;;0.40
68027;BMP180;54819;48.030;14.710;2023-04-06T03:55:01;97857.40;;;0.40
68027;BMP180;54819;48.030;14.710;2023-04-06T03:57:28;97862.80;;;0.40
68027;BMP180;54819;48.030;14.710;2023-04-06T03:59:57;97863.60;;;0.40
68027;BMP180;54819;48.030;14.710;2023-04-06T04:02:25;97867.60;;;0.42
68027;BMP180;54819;48.030;14.710;2023-04-06T04:04:52;97867.80;;;0.40
68027;BMP180;54819;48.030;14.710;2023-04-06T04:07:18;97875.20;;;0.40
68027;BMP180;54819;48.030;14.710;2023-04-06T04:09:45;97872.40;;;0.40
68027;BMP180;54819;48.030;14.710;2023-04-06T04:12:13;97873.20;;;0.40
68027;BMP180;54819;48.030;14.710;2023-04-06T04:14:41;97874.00;;;0.40
68027;BMP180;54819;48.030;14.710;2023-04-06T04:17:08;97873.20;;;0.40
68027;BMP180;54819;48.030;14.710;2023-04-06T04:19:35;97875.20;;;0.40
68027;BMP180;54819;48.030;14.710;2023-04-06T04:22:02;97877.60;;;0.40
68027;BMP180;54819;48.030;14.710;2023-04-06T04:24:32;97878.40;;;0.40
68027;BMP180;54819;48.030;14.710;2023-04-06T04:27:00;97878.60;;;0.38
68027;BMP180;54819;48.030;14.710;2023-04-06T04:29:30;97880.20;;;0.34
68027;BMP180;54819;48.030;14.710;2023-04-06T04:32:00;97884.00;;;0.30
68027;BMP180;54819;48.030;14.710;2023-04-06T04:34:27;97884.40;;;0.30
68027;BMP180;54819;48.030;14.710;2023-04-06T04:36:54;97884.40;;;0.30
68027;BMP180;54819;48.030;14.710;2023-04-06T04:39:29;97887.20;;;0.30
68027;BMP180;54819;48.030;14.710;2023-04-06T04:42:00;97888.80;;;0.30
68027;BMP180;54819;48.030;14.710;2023-04-06T04:44:27;97883.60;;;0.30
68027;BMP180;54819;48.030;14.710;2023-04-06T04:46:54;97887.20;;;0.40
68027;BMP180;54819;48.030;14.710;2023-04-06T04:49:23;97885.40;;;0.46
68027;BMP180;54819;48.030;14.710;2023-04-06T04:51:50;97883.00;;;0.60
68027;BMP180;54819;48.030;14.710;2023-04-06T04:54:36;97884.60;;;0.68
68027;BMP180;54819;48.030;14.710;2023-04-06T04:57:03;97882.20;;;0.80
68027;BMP180;54819;48.030;14.710;2023-04-06T04:59:37;97882.60;;;0.90
68027;BMP180;54819;48.030;14.710;2023-04-06T05:02:11;97883.80;;;1.00
68027;BMP180;54819;48.030;14.710;2023-04-06T05:05:01;97883.80;;;1.10
68027;BMP180;54819;48.030;14.710;2023-04-06T05:07:28;97883.60;;;1.20
68027;BMP180;54819;48.030;14.710;2023-04-06T05:09:55;97882.80;;;1.30
68027;BMP180;54819;48.030;14.710;2023-04-06T05:12:23;97883.80;;;1.42
68027;BMP180;54819;48.030;14.710;2023-04-06T05:14:59;97888.20;;;1.50
68027;BMP180;54819;48.030;14.710;2023-04-06T05:17:26;97889.80;;;1.60
68027;BMP180;54819;48.030;14.710;2023-04-06T05:19:54;97890.80;;;1.70
68027;BMP180;54819;48.030;14.710;2023-04-06T05:22:22;97891.80;;;1.80
68027;BMP180;54819;48.030;14.710;2023-04-06T05:24:57;97889.80;;;1.90
68027;BMP180;54819;48.030;14.710;2023-04-06T05:27:24;97894.00;;;2.00
68027;BMP180;54819;48.030;14.710;2023-04-06T05:29:51;97893.80;;;2.00
68027;BMP180;54819;48.030;14.710;2023-04-06T05:32:18;97895.80;;;2.10
68027;BMP180;54819;48.030;14.710;2023-04-06T05:34:49;97895.80;;;2.20
68027;BMP180;54819;48.030;14.710;2023-04-06T05:37:16;97894.00;;;2.26
68027;BMP180;54819;48.030;14.710;2023-04-06T05:39:43;97892.20;;;2.30
68027;BMP180;54819;48.030;14.710;2023-04-06T05:42:10;97898.00;;;2.40
68027;BMP180;54819;48.030;14.710;2023-04-06T05:44:50;97897.20;;;2.50
68027;BMP180;54819;48.030;14.710;2023-04-06T05:47:17;97899.00;;;2.58
68027;BMP180;54819;48.030;14.710;2023-04-06T05:49:47;97900.00;;;2.64
68027;BMP180;54819;48.030;14.710;2023-04-06T05:52:20;97901.00;;;2.72
68027;BMP180;54819;48.030;14.710;2023-04-06T05:54:47;97896.80;;;2.80
68027;BMP180;54819;48.030;14.710;2023-04-06T05:57:14;97895.40;;;2.94
68027;BMP180;54819;48.030;14.710;2023-04-06T05:59:43;97901.60;;;3.04
68027;BMP180;54819;48.030;14.710;2023-04-06T06:02:11;97908.00;;;3.10
68027;BMP180;54819;48.030;14.710;2023-04-06T06:04:40;97899.40;;;3.22
68027;BMP180;54819;48.030;14.710;2023-04-06T06:07:08;97901.20;;;3.30
68027;BMP180;54819;48.030;14.710;2023-04-06T06:09:43;97902.80;;;3.50
68027;BMP180;54819;48.030;14.710;2023-04-06T06:12:16;97902.00;;;3.60
68027;BMP180;54819;48.030;14.710;2023-04-06T06:14:43;97897.80;;;3.62
68027;BMP180;54819;48.030;14.710;2023-04-06T06:17:10;97900.40;;;3.76
68027;BMP180;54819;48.030;14.710;2023-04-06T06:19:37;97901.80;;;3.90
68027;BMP180;54819;48.030;14.710;2023-04-06T06:22:05;97906.40;;;3.90
68027;BMP180;54819;48.030;14.710;2023-04-06T06:24:34;97906.40;;;3.90
68027;BMP180;54819;48.030;14.710;2023-04-06T06:27:01;97910.20;;;3.90
68027;BMP180;54819;48.030;14.710;2023-04-06T06:29:30;97918.60;;;3.90
68027;BMP180;54819;48.030;14.710;2023-04-06T06:31:57;97918.80;;;3.90
68027;BMP180;54819;48.030;14.710;2023-04-06T06:34:24;97919.60;;;3.90
68027;BMP180;54819;48.030;14.710;2023-04-06T06:36:52;97921.00;;;3.90
68027;BMP180;54819;48.030;14.710;2023-04-06T06:39:21;97926.80;;;3.86
68027;BMP180;54819;48.030;14.710;2023-04-06T06:41:48;97931.60;;;3.88
68027;BMP180;54819;48.030;14.710;2023-04-06T06:44:15;97933.40;;;3.88
68027;BMP180;54819;48.030;14.710;2023-04-06T06:46:43;97936.80;;;3.90
68027;BMP180;54819;48.030;14.710;2023-04-06T06:49:09;97937.40;;;3.90
68027;BMP180;54819;48.030;14.710;2023-04-06T06:51:38;97937.40;;;3.90
68027;BMP180;54819;48.030;14.710;2023-04-06T06:54:07;97935.20;;;4.00
68027;BMP180;54819;48.030;14.710;2023-04-06T06:56:34;97939.60;;;4.10
68027;BMP180;54819;48.030;14.710;2023-04-06T06:59:04;97937.80;;;4.20
68027;BMP180;54819;48.030;14.710;2023-04-06T07:01:33;97937.40;;;4.30
68027;BMP180;54819;48.030;14.710;2023-04-06T07:04:01;97933.40;;;4.46
68027;BMP180;54819;48.030;14.710;2023-04-06T07:06:28;97939.80;;;4.60
68027;BMP180;54819;48.030;14.710;2023-04-06T07:08:55;97937.40;;;4.70
68027;BMP180;54819;48.030;14.710;2023-04-06T07:11:23;97936.80;;;4.86
68027;BMP180;54819;48.030;14.710;2023-04-06T07:13:49;97935.80;;;5.00
68027;BMP180;54819;48.030;14.710;2023-04-06T07:16:16;97933.20;;;5.20
68027;BMP180;54819;48.030;14.710;2023-04-06T07:18:43;97935.40;;;5.42
68027;BMP180;54819;48.030;14.710;2023-04-06T07:21:10;97935.80;;;5.60
68027;BMP180;54819;48.030;14.710;2023-04-06T07:23:37;97931.60;;;5.80
68027;BMP180;54819;48.030;14.710;2023-04-06T07:26:05;97930.20;;;5.90
68027;BMP180;54819;48.030;14.710;2023-04-06T07:28:32;97932.20;;;6.06
68027;BMP180;54819;48.030;14.710;2023-04-06T07:31:00;97929.60;;;6.20
68027;BMP180;54819;48.030;14.710;2023-04-06T07:33:27;97930.00;;;6.30
68027;BMP180;54819;48.030;14.710;2023-04-06T07:35:56;97925.00;;;6.40
68027;BMP180;54819;48.030;14.710;2023-04-06T07:38:24;97922.80;;;6.50
68027;BMP180;54819;48.030;14.710;2023-04-06T07:40:52;97925.20;;;6.64
68027;BMP180;54819;48.030;14.710;2023-04-06T07:43:18;97925.40;;;6.82
68027;BMP180;54819;48.030;14.710;2023-04-06T07:45:45;97923.20;;;7.00
68027;BMP180;54819;48.030;14.710;2023-04-06T07:48:14;97926.40;;;7.16
68027;BMP180;54819;48.030;14.710;2023-04-06T07:50:41;97921.00;;;7.28
68027;BMP180;54819;48.030;14.710;2023-04-06T07:53:08;97923.40;;;7.50
68027;BMP180;54819;48.030;14.710;2023-04-06T07:55:36;97918.20;;;7.70
68027;BMP180;54819;48.030;14.710;2023-04-06T07:58:03;97920.40;;;7.92
68027;BMP180;54819;48.030;14.710;2023-04-06T08:00:30;97920.20;;;8.10
68027;BMP180;54819;48.030;14.710;2023-04-06T08:02:57;97921.00;;;8.30
68027;BMP180;54819;48.030;14.710;2023-04-06T08:05:24;97921.60;;;8.46
68027;BMP180;54819;48.030;14.710;2023-04-06T08:07:51;97924.20;;;8.70
68027;BMP180;54819;48.030;14.710;2023-04-06T08:10:18;97920.00;;;8.90
68027;BMP180;54819;48.030;14.710;2023-04-06T08:12:44;97918.40;;;9.10
68027;BMP180;54819;48.030;14.710;2023-04-06T08:15:11;97915.00;;;9.24
68027;BMP180;54819;48.030;14.710;2023-04-06T08:17:38;97914.40;;;9.30
68027;BMP180;54819;48.030;14.710;2023-04-06T08:20:05;97911.80;;;9.40
68027;BMP180;54819;48.030;14.710;2023-04-06T08:22:32;97915.80;;;9.54
68027;BMP180;54819;48.030;14.710;2023-04-06T08:24:59;97913.40;;;9.74
68027;BMP180;54819;48.030;14.710;2023-04-06T08:27:26;97916.80;;;9.90
68027;BMP180;54819;48.030;14.710;2023-04-06T08:29:53;97915.60;;;10.02
68027;BMP180;54819;48.030;14.710;2023-04-06T08:32:20;97917.20;;;10.16
68027;BMP180;54819;48.030;14.710;2023-04-06T08:34:47;97910.00;;;10.12
68027;BMP180;54819;48.030;14.710;2023-04-06T08:37:13;97912.40;;;10.12
68027;BMP180;54819;48.030;14.710;2023-04-06T08:39:40;97914.80;;;10.10
68027;BMP180;54819;48.030;14.710;2023-04-06T08:42:16;97914.60;;;10.06
68027;BMP180;54819;48.030;14.710;2023-04-06T08:44:46;97910.60;;;9.90
68027;BMP180;54819;48.030;14.710;2023-04-06T08:47:13;97911.20;;;9.78
68027;BMP180;54819;48.030;14.710;2023-04-06T08:49:41;97908.20;;;9.60
68027;BMP180;54819;48.030;14.710;2023-04-06T08:52:10;97904.80;;;9.50
68027;BMP180;54819;48.030;14.710;2023-04-06T08:54:38;97900.20;;;9.40
68027;BMP180;54819;48.030;14.710;2023-04-06T08:57:06;97895.00;;;9.34
68027;BMP180;54819;48.030;14.710;2023-04-06T08:59:34;97897.80;;;9.30
68027;BMP180;54819;48.030;14.710;2023-04-06T09:02:04;97897.80;;;9.30
68027;BMP180;54819;48.030;14.710;2023-04-06T09:04:36;97897.40;;;9.40
68027;BMP180;54819;48.030;14.710;2023-04-06T09:07:03;97893.20;;;9.30
68027;BMP180;54819;48.030;14.710;2023-04-06T09:09:30;97891.60;;;9.40
68027;BMP180;54819;48.030;14.710;2023-04-06T09:11:56;97893.40;;;9.40
68027;BMP180;54819;48.030;14.710;2023-04-06T09:14:37;97889.40;;;9.40
68027;BMP180;54819;48.030;14.710;2023-04-06T09:17:06;97888.80;;;9.50
68027;BMP180;54819;48.030;14.710;2023-04-06T09:19:32;97887.80;;;9.50
68027;BMP180;54819;48.030;14.710;2023-04-06T09:22:06;97887.40;;;9.50
68027;BMP180;54819;48.030;14.710;2023-04-06T09:24:44;97887.00;;;9.60
68027;BMP180;54819;48.030;14.710;2023-04-06T09:27:13;97885.60;;;9.60
68027;BMP180;54819;48.030;14.710;2023-04-06T09:29:44;97889.00;;;9.60
68027;BMP180;54819;48.030;14.710;2023-04-06T09:32:11;97888.40;;;9.60
68027;BMP180;54819;48.030;14.710;2023-04-06T09:34:39;97886.40;;;9.60
68027;BMP180;54819;48.030;14.710;2023-04-06T09:37:18;97885.00;;;9.60
68027;BMP180;54819;48.030;14.710;2023-04-06T09:39:46;97884.20;;;9.60
68027;BMP180;54819;48.030;14.710;2023-04-06T09:42:25;97873.40;;;9.60
68027;BMP180;54819;48.030;14.710;2023-04-06T09:44:52;97879.00;;;9.60
68027;BMP180;54819;48.030;14.710;2023-04-06T09:47:19;97874.00;;;9.60
68027;BMP180;54819;48.030;14.710;2023-04-06T09:49:48;97873.20;;;9.70
68027;BMP180;54819;48.030;14.710;2023-04-06T09:52:17;97870.60;;;9.60
68027;BMP180;54819;48.030;14.710;2023-04-06T09:54:49;97864.60;;;9.70
68027;BMP180;54819;48.030;14.710;2023-04-06T09:58:01;97865.60;;;9.80
68027;BMP180;54819;48.030;14.710;2023-04-06T10:00:09;97860.40;;;9.80
68027;BMP180;54819;48.030;14.710;2023-04-06T10:02:53;97851.80;;;9.90
68027;BMP180;54819;48.030;14.710;2023-04-06T10:05:36;97855.60;;;9.90
68027;BMP180;54819;48.030;14.710;2023-04-06T10:08:10;97856.60;;;9.90
68027;BMP180;54819;48.030;14.710;2023-04-06T10:10:38;97855.00;;;9.90
68027;BMP180;54819;48.030;14.710;2023-04-06T10:13:05;97848.00;;;9.90
68027;BMP180;54819;48.030;14.710;2023-04-06T10:15:33;97848.20;;;9.90
68027;BMP180;54819;48.030;14.710;2023-04-06T10:18:01;97846.80;;;9.90
68027;BMP180;54819;48.030;14.710;2023-04-06T10:20:39;97853.80;;;10.00
68027;BMP180;54819;48.030;14.710;2023-04-06T10:23:13;97847.00;;;10.08
68027;BMP180;54819;48.030;14.710;2023-04-06T10:25:55;97843.00;;;10.10
68027;BMP180;54819;48.030;14.710;2023-04-06T10:28:23;97841.40;;;10.10
68027;BMP180;54819;48.030;14.710;2023-04-06T10:30:57;97839.80;;;10.06
68027;BMP180;54819;48.030;14.710;2023-04-06T10:33:24;97836.00;;;10.08
68027;BMP180;54819;48.030;14.710;2023-04-06T10:35:51;97836.60;;;10.10
68027;BMP180;54819;48.030;14.710;2023-04-06T10:38:19;97836.20;;;10.10
68027;BMP180;54819;48.030;14.710;2023-04-06T10:40:50;97830.00;;;10.20
68027;BMP180;54819;48.030;14.710;2023-04-06T10:43:22;97829.00;;;10.30
68027;BMP180;54819;48.030;14.710;2023-04-06T10:45:57;97829.40;;;10.30
68027;BMP180;54819;48.030;14.710;2023-04-06T10:48:24;97820.80;;;10.30
68027;BMP180;54819;48.030;14.710;2023-04-06T10:50:52;97829.00;;;10.34
68027;BMP180;54819;48.030;14.710;2023-04-06T10:53:24;97825.60;;;10.50
68027;BMP180;54819;48.030;14.710;2023-04-06T10:55:54;97822.60;;;10.50
68027;BMP180;54819;48.030;14.710;2023-04-06T10:58:25;97823.00;;;10.58
68027;BMP180;54819;48.030;14.710;2023-04-06T11:00:54;97817.60;;;10.58
68027;BMP180;54819;48.030;14.710;2023-04-06T11:03:22;97821.80;;;10.62
68027;BMP180;54819;48.030;14.710;2023-04-06T11:05:50;97820.60;;;10.70
68027;BMP180;54819;48.030;14.710;2023-04-06T11:08:30;97818.80;;;10.80
68027;BMP180;54819;48.030;14.710;2023-04-06T11:11:06;97816.40;;;11.00
68027;BMP180;54819;48.030;14.710;2023-04-06T11:13:56;97818.20;;;11.10
68027;BMP180;54819;48.030;14.710;2023-04-06T11:16:25;97814.60;;;11.10
68027;BMP180;54819;48.030;14.710;2023-04-06T11:19:02;97808.20;;;11.06
68027;BMP180;54819;48.030;14.710;2023-04-06T11:21:39;97803.80;;;11.00
68027;BMP180;54819;48.030;14.710;2023-04-06T11:24:22;97804.80;;;11.00
68027;BMP180;54819;48.030;14.710;2023-04-06T11:26:51;97801.00;;;11.10
68027;BMP180;54819;48.030;14.710;2023-04-06T11:29:21;97795.40;;;11.10
68027;BMP180;54819;48.030;14.710;2023-04-06T11:31:51;97794.80;;;11.20
68027;BMP180;54819;48.030;14.710;2023-04-06T11:34:24;97792.40;;;11.30
68027;BMP180;54819;48.030;14.710;2023-04-06T11:37:00;97793.00;;;11.30
68027;BMP180;54819;48.030;14.710;2023-04-06T11:39:29;97784.00;;;11.20
68027;BMP180;54819;48.030;14.710;2023-04-06T11:42:01;97787.40;;;11.20
68027;BMP180;54819;48.030;14.710;2023-04-06T11:44:37;97781.40;;;11.10
68027;BMP180;54819;48.030;14.710;2023-04-06T11:47:07;97783.00;;;11.10
68027;BMP180;54819;48.030;14.710;2023-04-06T11:49:39;97779.80;;;11.10
68027;BMP180;54819;48.030;14.710;2023-04-06T11:52:24;97772.80;;;11.10
68027;BMP180;54819;48.030;14.710;2023-04-06T11:54:53;97769.80;;;11.20
68027;BMP180;54819;48.030;14.710;2023-04-06T11:57:21;97764.80;;;11.20
68027;BMP180;54819;48.030;14.710;2023-04-06T11:59:52;97764.40;;;11.30
68027;BMP180;54819;48.030;14.710;2023-04-06T12:02:19;97760.60;;;11.32
68027;BMP180;54819;48.030;14.710;2023-04-06T12:04:46;97757.40;;;11.50
68027;BMP180;54819;48.030;14.710;2023-04-06T12:07:13;97757.60;;;11.60
68027;BMP180;54819;48.030;14.710;2023-04-06T12:09:40;97761.20;;;11.60
68027;BMP180;54819;48.030;14.710;2023-04-06T12:12:07;97755.20;;;11.70
68027;BMP180;54819;48.030;14.710;2023-04-06T12:14:34;97756.20;;;11.60
68027;BMP180;54819;48.030;14.710;2023-04-06T12:17:01;97751.80;;;11.60
68027;BMP180;54819;48.030;14.710;2023-04-06T12:19:27;97757.00;;;11.60
68027;BMP180;54819;48.030;14.710;2023-04-06T12:21:57;97749.80;;;11.60
68027;BMP180;54819;48.030;14.710;2023-04-06T12:24:24;97751.20;;;11.58
68027;BMP180;54819;48.030;14.710;2023-04-06T12:26:51;97751.40;;;11.60
68027;BMP180;54819;48.030;14.710;2023-04-06T12:29:28;97748.60;;;11.60
68027;BMP180;54819;48.030;14.710;2023-04-06T12:31:55;97746.80;;;11.60
68027;BMP180;54819;48.030;14.710;2023-04-06T12:34:22;97743.40;;;11.60
68027;BMP180;54819;48.030;14.710;2023-04-06T12:36:49;97739.40;;;11.62
68027;BMP180;54819;48.030;14.710;2023-04-06T12:39:18;97738.00;;;11.70
68027;BMP180;54819;48.030;14.710;2023-04-06T12:41:47;97738.20;;;11.70
68027;BMP180;54819;48.030;14.710;2023-04-06T12:44:14;97733.80;;;11.78
68027;BMP180;54819;48.030;14.710;2023-04-06T12:46:40;97727.80;;;11.80
68027;BMP180;54819;48.030;14.710;2023-04-06T12:49:09;97727.40;;;11.80
68027;BMP180;54819;48.030;14.710;2023-04-06T12:51:36;97727.00;;;11.86
68027;BMP180;54819;48.030;14.710;2023-04-06T12:54:03;97729.20;;;11.90
68027;BMP180;54819;48.030;14.710;2023-04-06T12:56:29;97728.80;;;12.00
68027;BMP180;54819;48.030;14.710;2023-04-06T12:58:57;97721.20;;;12.10
68027;BMP180;54819;48.030;14.710;2023-04-06T13:01:24;97719.60;;;12.20
68027;BMP180;54819;48.030;14.710;2023-04-06T13:03:53;97720.20;;;12.20
68027;BMP180;54819;48.030;14.710;2023-04-06T13:06:19;97727.00;;;12.10
68027;BMP180;54819;48.030;14.710;2023-04-06T13:08:46;97722.80;;;12.00
68027;BMP180;54819;48.030;14.710;2023-04-06T13:11:16;97721.00;;;11.90
68027;BMP180;54819;48.030;14.710;2023-04-06T13:13:42;97722.80;;;11.90
68027;BMP180;54819;48.030;14.710;2023-04-06T13:16:09;97720.20;;;11.86
68027;BMP180;54819;48.030;14.710;2023-04-06T13:18:36;97721.60;;;11.90
68027;BMP180;54819;48.030;14.710;2023-04-06T13:21:06;97716.20;;;12.00
68027;BMP180;54819;48.030;14.710;2023-04-06T13:23:34;97710.00;;;12.02
68027;BMP180;54819;48.030;14.710;2023-04-06T13:26:05;97704.00;;;12.04
68027;BMP180;54819;48.030;14.710;2023-04-06T13:28:34;97699.20;;;12.20
68027;BMP180;54819;48.030;14.710;2023-04-06T13:31:02;97695.40;;;12.40
68027;BMP180;54819;48.030;14.710;2023-04-06T13:33:30;97692.60;;;12.58
68027;BMP180;54819;48.030;14.710;2023-04-06T13:35:58;97693.60;;;12.70
68027;BMP180;54819;48.030;14.710;2023-04-06T13:38:25;97686.80;;;12.70
68027;BMP180;54819;48.030;14.710;2023-04-06T13:40:52;97690.80;;;12.62
68027;BMP180;54819;48.030;14.710;2023-04-06T13:43:19;97690.40;;;12.70
68027;BMP180;54819;48.030;14.710;2023-04-06T13:45:52;97691.60;;;12.68
68027;BMP180;54819;48.030;14.710;2023-04-06T13:48:20;97686.20;;;12.62
68027;BMP180;54819;48.030;14.710;2023-04-06T13:50:47;97678.20;;;12.62
68027;BMP180;54819;48.030;14.710;2023-04-06T13:53:14;97677.80;;;12.70
68027;BMP180;54819;48.030;14.710;2023-04-06T13:55:41;97673.00;;;12.70
68027;BMP180;54819;48.030;14.710;2023-04-06T13:58:08;97674.20;;;12.80
68027;BMP180;54819;48.030;14.710;2023-04-06T14:00:35;97672.40;;;12.90
68027;BMP180;54819;48.030;14.710;2023-04-06T14:03:02;97675.00;;;12.90
68027;BMP180;54819;48.030;14.710;2023-04-06T14:05:33;97665.20;;;12.90
68027;BMP180;54819;48.030;14.710;2023-04-06T14:08:00;97664.80;;;12.90
68027;BMP180;54819;48.030;14.710;2023-04-06T14:10:27;97664.20;;;12.90
68027;BMP180;54819;48.030;14.710;2023-04-06T14:12:55;97660.00;;;12.90
68027;BMP180;54819;48.030;14.710;2023-04-06T14:15:22;97663.20;;;12.82